Time;durP1;ratioP1;P1;durP2;ratioP2;P2;SDS_P1;SDS_P2;PMS_P1;PMS_P2;Temp;Humidity;BMP_temperature;BMP_pressure;BME280_temperature;BME280_humidity;BME280_pressure;Samples;Min_cycle;Max_cycle;Signal;HPM_P1;HPM_P2
2023/08/02 00:00:48;;;;;;;;;;;;;;;;;;5090810;28;20355;-69
2023/08/02 00:03:14;;;;;;;;;;;;;;;;;;5089815;28;20207;-68
2023/08/02 00:12:10;;;;;;;;;;;;;;;;;;5091517;27;20303;-68
2023/08/02 00:14:36;;;;;;;;;;;;;;;;;;5091062;28;20007;-68
2023/08/02 00:17:02;;;;;;;;;;;;;;;;;;5091139;28;19970;-69
2023/08/02 00:19:28;;;;;;;;;;;;;;;;;;5091357;28;19916;-68
2023/08/02 00:22:13;;;;;;;;;;;;;;;;;;5111351;27;19938;-68
2023/08/02 00:24:38;;;;;;;;;;;;;;;;;;5111616;28;20435;-68
2023/08/02 00:27:04;;;;;;;;;;;;;;;;;;5111512;28;19961;-68
2023/08/02 00:29:30;;;;;;;;;;;;;;;;;;5109760;28;19908;-68
2023/08/02 00:31:56;;;;;;;;;;;;;;;;;;5111463;28;19919;-68
2023/08/02 00:34:22;;;;;;;;;;;;;;;;;;5111016;28;19920;-68
2023/08/02 00:36:48;;;;;;;;;;;;;;;;;;5110153;28;19908;-68
2023/08/02 00:39:14;;;;;;;;;;;;;;;;;;5111301;28;20245;-68
2023/08/02 00:45:12;;;;;;;;;;;;;;;;;;5091672;27;19923;-68
2023/08/02 00:47:38;;;;;;;;;;;;;;;;;;5091362;28;20007;-68
2023/08/02 00:50:04;;;;;;;;;;;;;;;;;;5090799;28;19962;-68
2023/08/02 00:52:30;;;;;;;;;;;;;;;;;;5089911;28;19909;-68
2023/08/02 00:54:56;;;;;;;;;;;;;;;;;;5091096;28;19961;-68
2023/08/02 00:57:22;;;;;;;;;;;;;;;;;;5089393;28;19983;-68
2023/08/02 00:59:48;;;;;;;;;;;;;;;;;;5091014;28;19931;-68
2023/08/02 01:02:14;;;;;;;;;;;;;;;;;;5090994;28;19909;-69
2023/08/02 01:04:40;;;;;;;;;;;;;;;;;;5090495;28;19924;-69
2023/08/02 01:07:05;;;;;;;;;;;;;;;;;;5090924;28;19913;-69
2023/08/02 01:10:41;;;;;;;;;;;;;;;;;;5091354;27;19916;-68
2023/08/02 01:13:07;;;;;;;;;;;;;;;;;;5091275;28;20003;-68
2023/08/02 01:15:33;;;;;;;;;;;;;;;;;;5091221;28;19969;-68
2023/08/02 01:17:59;;;;;;;;;;;;;;;;;;5089619;28;19908;-68
2023/08/02 01:23:19;;;;;;;;;;;;;;;;;;5091947;27;19922;-68
2023/08/02 01:25:45;;;;;;;;;;;;;;;;;;5090908;28;20006;-68
2023/08/02 01:28:11;;;;;;;;;;;;;;;;;;5091485;28;19954;-68
2023/08/02 01:30:38;;;;;;;;;;;;;;;;;;5090798;28;19938;-68
2023/08/02 01:33:05;;;;;;;;;;;;;;;;;;5091098;28;19915;-68
2023/08/02 01:35:31;;;;;;;;;;;;;;;;;;5091089;28;19999;-68
2023/08/02 01:38:32;;;;;;;;;;;;;;;;;;5091283;27;20287;-68
2023/08/02 01:40:58;;;;;;;;;;;;;;;;;;5091338;28;20007;-68
2023/08/02 01:43:24;;;;;;;;;;;;;;;;;;5089931;28;19909;-68
2023/08/02 01:48:32;;;;;;;;;;;;;;;;;;5091472;28;19927;-68
2023/08/02 01:50:58;;;;;;;;;;;;;;;;;;5091192;28;19999;-68
2023/08/02 01:53:24;;;;;;;;;;;;;;;;;;5090721;28;19962;-68
2023/08/02 01:57:44;;;;;;;;;;;;;;;;;;5091392;27;19913;-68
2023/08/02 02:02:04;;;;;;;;;;;;;;;;;;5091982;27;19916;-68
2023/08/02 02:04:30;;;;;;;;;;;;;;;;;;5091258;28;20004;-68
2023/08/02 02:06:56;;;;;;;;;;;;;;;;;;5090803;28;20285;-68
2023/08/02 02:09:22;;;;;;;;;;;;;;;;;;5091128;28;20347;-68
2023/08/02 02:11:47;;;;;;;;;;;;;;;;;;5091275;28;19908;-68
2023/08/02 02:14:14;;;;;;;;;;;;;;;;;;5090705;28;20364;-68
2023/08/02 02:16:40;;;;;;;;;;;;;;;;;;5091583;28;19912;-68
2023/08/02 02:19:06;;;;;;;;;;;;;;;;;;5090927;28;19909;-68
2023/08/02 02:21:32;;;;;;;;;;;;;;;;;;5090509;28;19960;-70
2023/08/02 02:23:58;;;;;;;;;;;;;;;;;;5090903;28;19915;-67
2023/08/02 02:26:24;;;;;;;;;;;;;;;;;;5089613;28;20061;-70
2023/08/02 02:28:50;;;;;;;;;;;;;;;;;;5090539;28;19908;-69
2023/08/02 02:31:34;;;;;;;;;;;;;;;;;;5092178;27;19917;-70
2023/08/02 02:34:22;;;;;;;;;;;;;;;;;;5091605;28;20295;-69
2023/08/02 02:36:49;;;;;;;;;;;;;;;;;;5090097;28;19954;-69
2023/08/02 02:39:15;;;;;;;;;;;;;;;;;;5091173;28;19995;-69
2023/08/02 02:42:10;;;;;;;;;;;;;;;;;;5091379;27;19936;-70
2023/08/02 02:46:54;;;;;;;;;;;;;;;;;;5111791;27;19935;-69
2023/08/02 02:49:20;;;;;;;;;;;;;;;;;;5111206;28;20430;-68
2023/08/02 02:55:28;;;;;;;;;;;;;;;;;;5091417;27;20388;-68
2023/08/02 02:59:07;;;;;;;;;;;;;;;;;;5091784;28;19998;-68
2023/08/02 03:03:24;;;;;;;;;;;;;;;;;;5111562;27;19942;-68
2023/08/02 03:07:24;;;;;;;;;;;;;;;;;;5091783;27;19913;-67
2023/08/02 03:11:24;;;;;;;;;;;;;;;;;;5091360;27;19918;-68
2023/08/02 03:13:50;;;;;;;;;;;;;;;;;;5091279;28;19912;-69
2023/08/02 03:16:16;;;;;;;;;;;;;;;;;;5090943;28;19961;-70
2023/08/02 03:18:42;;;;;;;;;;;;;;;;;;5091385;28;19912;-70
2023/08/02 03:21:08;;;;;;;;;;;;;;;;;;5089888;28;19909;-70
2023/08/02 03:23:34;;;;;;;;;;;;;;;;;;5090797;28;20003;-70
2023/08/02 03:26:00;;;;;;;;;;;;;;;;;;5091068;28;19916;-68
2023/08/02 03:30:10;;;;;;;;;;;;;;;;;;5091298;27;20291;-68
2023/08/02 03:32:36;;;;;;;;;;;;;;;;;;5091233;28;19913;-68
2023/08/02 03:35:02;;;;;;;;;;;;;;;;;;5089843;28;19908;-68
2023/08/02 03:37:28;;;;;;;;;;;;;;;;;;5089462;28;19990;-68
2023/08/02 03:40:20;;;;;;;;;;;;;;;;;;5091244;28;19939;-69
2023/08/02 03:44:15;;;;;;;;;;;;;;;;;;5091596;27;19913;-68
2023/08/02 03:48:00;;;;;;;;;;;;;;;;;;5091509;27;19917;-68
2023/08/02 03:50:26;;;;;;;;;;;;;;;;;;5089953;28;20347;-69
2023/08/02 03:55:24;;;;;;;;;;;;;;;;;;5091359;27;19916;-68
2023/08/02 03:57:50;;;;;;;;;;;;;;;;;;5091351;28;20003;-68
2023/08/02 04:03:01;;;;;;;;;;;;;;;;;;5091560;27;19916;-68
2023/08/02 04:05:27;;;;;;;;;;;;;;;;;;5091105;28;20004;-68
2023/08/02 04:08:23;;;;;;;;;;;;;;;;;;5091895;27;19923;-68
2023/08/02 04:10:49;;;;;;;;;;;;;;;;;;5091281;28;19995;-68
2023/08/02 04:15:40;;;;;;;;;;;;;;;;;;5091479;27;19939;-68
2023/08/02 04:18:50;;;;;;;;;;;;;;;;;;5091626;27;19916;-68
2023/08/02 04:22:13;;;;;;;;;;;;;;;;;;5091385;27;19917;-68
2023/08/02 04:24:39;;;;;;;;;;;;;;;;;;5091361;28;19995;-68
2023/08/02 04:27:22;;;;;;;;;;;;;;;;;;5111690;27;20314;-68
2023/08/02 04:29:48;;;;;;;;;;;;;;;;;;5112081;28;20015;-68
2023/08/02 04:32:33;;;;;;;;;;;;;;;;;;5091830;27;19916;-68
2023/08/02 04:34:59;;;;;;;;;;;;;;;;;;5090899;28;20006;-68
2023/08/02 04:38:28;;;;;;;;;;;;;;;;;;5091479;28;19919;-68
2023/08/02 04:42:36;;;;;;;;;;;;;;;;;;5111212;27;19912;-68
2023/08/02 04:45:02;;;;;;;;;;;;;;;;;;5111992;28;20341;-69
2023/08/02 04:50:36;;;;;;;;;;;;;;;;;;5091382;27;19916;-70
2023/08/02 04:54:00;;;;;;;;;;;;;;;;;;5092125;27;20258;-69
2023/08/02 04:57:09;;;;;;;;;;;;;;;;;;5091557;27;20303;-69
2023/08/02 05:03:55;;;;;;;;;;;;;;;;;;5091132;27;19916;-68
2023/08/02 05:06:21;;;;;;;;;;;;;;;;;;5091256;28;19999;-68
2023/08/02 05:08:47;;;;;;;;;;;;;;;;;;5091244;28;19954;-68
2023/08/02 05:12:02;;;;;;;;;;;;;;;;;;5173793;27;20421;-68
2023/08/02 05:14:28;;;;;;;;;;;;;;;;;;5173898;27;19911;-68
2023/08/02 05:16:54;;;;;;;;;;;;;;;;;;5173445;27;20436;-68
2023/08/02 05:23:14;;;;;;;;;;;;;;;;;;5091197;27;19922;-68
2023/08/02 05:25:40;;;;;;;;;;;;;;;;;;5091247;28;20351;-68
2023/08/02 05:28:59;;;;;;;;;;;;;;;;;;5092076;27;20295;-68
2023/08/02 05:31:25;;;;;;;;;;;;;;;;;;5089655;28;19913;-68
2023/08/02 05:33:51;;;;;;;;;;;;;;;;;;5091187;28;19983;-68
2023/08/02 05:36:17;;;;;;;;;;;;;;;;;;5091177;28;19908;-68
2023/08/02 05:38:58;;;;;;;;;;;;;;;;;;5090839;27;19916;-68
2023/08/02 05:41:24;;;;;;;;;;;;;;;;;;5091169;28;19919;-68
2023/08/02 05:43:50;;;;;;;;;;;;;;;;;;5090681;28;20365;-68
2023/08/02 05:47:04;;;;;;;;;;;;;;;;;;5092177;28;19916;-68
2023/08/02 05:49:30;;;;;;;;;;;;;;;;;;5089896;28;20000;-68
2023/08/02 05:51:56;;;;;;;;;;;;;;;;;;5090934;28;20448;-68
2023/08/02 05:54:22;;;;;;;;;;;;;;;;;;5091292;28;19959;-68
2023/08/02 05:56:48;;;;;;;;;;;;;;;;;;5091228;28;19908;-68
2023/08/02 05:59:14;;;;;;;;;;;;;;;;;;5090667;28;20343;-68
2023/08/02 06:06:09;;;;;;;;;;;;;;;;;;5091212;28;19916;-68
2023/08/02 06:08:35;;;;;;;;;;;;;;;;;;5091273;28;20011;-68
2023/08/02 06:12:27;;;;;;;;;;;;;;;;;;5111548;27;19924;-68
2023/08/02 06:16:23;;;;;;;;;;;;;;;;;;5091416;27;19917;-68
2023/08/02 06:18:49;;;;;;;;;;;;;;;;;;5091558;28;19966;-68
2023/08/02 06:21:15;;;;;;;;;;;;;;;;;;5090825;28;19912;-69
2023/08/02 06:23:41;;;;;;;;;;;;;;;;;;5091194;28;20284;-69
2023/08/02 06:26:07;;;;;;;;;;;;;;;;;;5090732;28;19916;-69
2023/08/02 06:28:33;;;;;;;;;;;;;;;;;;5091033;28;19912;-69
2023/08/02 06:31:20;;;;;;;;;;;;;;;;;;5153320;27;20006;-68
2023/08/02 06:33:46;;;;;;;;;;;;;;;;;;5133831;27;19966;-69
2023/08/02 06:36:12;;;;;;;;;;;;;;;;;;5152744;27;19907;-70
2023/08/02 06:38:39;;;;;;;;;;;;;;;;;;5152970;27;20291;-69
2023/08/02 06:41:05;;;;;;;;;;;;;;;;;;5152321;27;20009;-69
2023/08/02 06:43:30;;;;;;;;;;;;;;;;;;5152624;27;20437;-69
2023/08/02 06:45:57;;;;;;;;;;;;;;;;;;5152596;27;19930;-69
2023/08/02 06:48:23;;;;;;;;;;;;;;;;;;5152114;27;20013;-69
2023/08/02 06:50:49;;;;;;;;;;;;;;;;;;5152381;27;19920;-69
2023/08/02 06:53:15;;;;;;;;;;;;;;;;;;5152370;27;19914;-69
2023/08/02 06:55:41;;;;;;;;;;;;;;;;;;5151941;27;20270;-69
2023/08/02 06:58:07;;;;;;;;;;;;;;;;;;5133798;27;19907;-69
2023/08/02 07:00:33;;;;;;;;;;;;;;;;;;5152294;27;19987;-69
2023/08/02 07:06:35;;;;;;;;;;;;;;;;;;5153162;27;20006;-69
2023/08/02 07:09:01;;;;;;;;;;;;;;;;;;5152369;27;20014;-69
2023/08/02 07:11:27;;;;;;;;;;;;;;;;;;5152778;27;19908;-69
2023/08/02 07:13:53;;;;;;;;;;;;;;;;;;5152605;27;20078;-68
2023/08/02 07:16:19;;;;;;;;;;;;;;;;;;5152143;27;19907;-69
2023/08/02 07:23:20;;;;;;;;;;;;;;;;;;5091276;28;19919;-68
2023/08/02 07:25:46;;;;;;;;;;;;;;;;;;5091286;28;20345;-69
2023/08/02 07:28:12;;;;;;;;;;;;;;;;;;5091191;28;19909;-68
2023/08/02 07:30:37;;;;;;;;;;;;;;;;;;5090823;28;19921;-68
2023/08/02 07:36:53;;;;;;;;;;;;;;;;;;5091026;27;19917;-68
2023/08/02 07:40:36;;;;;;;;;;;;;;;;;;5091408;27;19913;-69
2023/08/02 07:43:02;;;;;;;;;;;;;;;;;;5091417;28;20003;-69
2023/08/02 07:46:16;;;;;;;;;;;;;;;;;;5091458;27;19923;-68
2023/08/02 07:48:41;;;;;;;;;;;;;;;;;;5091158;28;19955;-70
2023/08/02 07:55:40;;;;;;;;;;;;;;;;;;5152836;27;20479;-69
2023/08/02 07:58:06;;;;;;;;;;;;;;;;;;5152304;27;19922;-69
2023/08/02 08:00:32;;;;;;;;;;;;;;;;;;5152598;27;19908;-70
2023/08/02 08:02:58;;;;;;;;;;;;;;;;;;5152622;27;19934;-69
2023/08/02 08:05:25;;;;;;;;;;;;;;;;;;5152108;27;19908;-69
2023/08/02 08:08:04;;;;;;;;;;;;;;;;;;5090020;28;19922;-70
2023/08/02 08:10:30;;;;;;;;;;;;;;;;;;5088995;28;19912;-69
2023/08/02 08:12:56;;;;;;;;;;;;;;;;;;5088863;28;19962;-69
2023/08/02 08:16:39;;;;;;;;;;;;;;;;;;5088888;27;19916;-68
2023/08/02 08:19:04;;;;;;;;;;;;;;;;;;5088657;28;19912;-68
2023/08/02 08:21:31;;;;;;;;;;;;;;;;;;5088424;28;19913;-68
2023/08/02 08:23:57;;;;;;;;;;;;;;;;;;5089043;28;19915;-68
2023/08/02 08:26:23;;;;;;;;;;;;;;;;;;5089107;28;19912;-68
2023/08/02 08:28:49;;;;;;;;;;;;;;;;;;5089940;28;19908;-69
2023/08/02 08:31:15;;;;;;;;;;;;;;;;;;5089954;28;19961;-69
2023/08/02 08:33:41;;;;;;;;;;;;;;;;;;5089558;28;19908;-70
2023/08/02 08:36:07;;;;;;;;;;;;;;;;;;5089790;28;19916;-70
2023/08/02 08:38:33;;;;;;;;;;;;;;;;;;5089932;28;20461;-70
2023/08/02 08:40:59;;;;;;;;;;;;;;;;;;5089058;28;19908;-70
2023/08/02 08:43:25;;;;;;;;;;;;;;;;;;5090760;28;19931;-69
2023/08/02 08:45:51;;;;;;;;;;;;;;;;;;5090775;28;19909;-70
2023/08/02 08:48:17;;;;;;;;;;;;;;;;;;5090327;28;19908;-70
2023/08/02 08:50:43;;;;;;;;;;;;;;;;;;5090699;28;19909;-69
2023/08/02 08:53:10;;;;;;;;;;;;;;;;;;5090623;28;19938;-70
2023/08/02 08:55:36;;;;;;;;;;;;;;;;;;5090194;28;19932;-71
2023/08/02 08:58:02;;;;;;;;;;;;;;;;;;5090695;28;19908;-71
2023/08/02 09:00:31;;;;;;;;;;;;;;;;;;5090473;28;19954;-69
2023/08/02 09:02:58;;;;;;;;;;;;;;;;;;5090082;28;19962;-70
2023/08/02 09:05:24;;;;;;;;;;;;;;;;;;5090373;28;20365;-69
2023/08/02 09:07:50;;;;;;;;;;;;;;;;;;5088717;28;19962;-69
2023/08/02 09:10:16;;;;;;;;;;;;;;;;;;5090324;28;19909;-69
2023/08/02 09:12:42;;;;;;;;;;;;;;;;;;5090329;28;19995;-69
2023/08/02 09:15:08;;;;;;;;;;;;;;;;;;5089521;28;20404;-69
2023/08/02 09:17:34;;;;;;;;;;;;;;;;;;5090101;28;19930;-69
2023/08/02 09:20:00;;;;;;;;;;;;;;;;;;5090182;28;19951;-69
2023/08/02 09:22:26;;;;;;;;;;;;;;;;;;5089808;28;19913;-69
2023/08/02 09:24:52;;;;;;;;;;;;;;;;;;5090298;28;19909;-69
2023/08/02 09:27:19;;;;;;;;;;;;;;;;;;5080781;28;19940;-69
2023/08/02 09:29:45;;;;;;;;;;;;;;;;;;5074888;28;19908;-70
2023/08/02 09:32:12;;;;;;;;;;;;;;;;;;5076338;28;19908;-69
2023/08/02 09:34:37;;;;;;;;;;;;;;;;;;5076238;28;20010;-70
2023/08/02 09:37:03;;;;;;;;;;;;;;;;;;5075832;28;20008;-70
2023/08/02 09:39:29;;;;;;;;;;;;;;;;;;5076266;28;19909;-69
2023/08/02 09:41:55;;;;;;;;;;;;;;;;;;5074930;28;19913;-69
2023/08/02 09:44:21;;;;;;;;;;;;;;;;;;5074463;28;19955;-70
2023/08/02 09:46:47;;;;;;;;;;;;;;;;;;5076173;28;20347;-70
2023/08/02 09:49:13;;;;;;;;;;;;;;;;;;5076328;28;19963;-70
2023/08/02 09:51:39;;;;;;;;;;;;;;;;;;5075614;28;19962;-70
2023/08/02 09:54:05;;;;;;;;;;;;;;;;;;5076080;28;20437;-70
2023/08/02 09:56:31;;;;;;;;;;;;;;;;;;5075846;28;19920;-69
2023/08/02 09:58:57;;;;;;;;;;;;;;;;;;5075549;28;19912;-70
2023/08/02 10:01:24;;;;;;;;;;;;;;;;;;5075829;28;19909;-70
2023/08/02 10:03:52;;;;;;;;;;;;;;;;;;5075865;28;19912;-70
2023/08/02 10:06:18;;;;;;;;;;;;;;;;;;5075314;28;19923;-70
2023/08/02 10:08:44;;;;;;;;;;;;;;;;;;5075713;28;19987;-71
2023/08/02 10:11:10;;;;;;;;;;;;;;;;;;5075231;28;19909;-70
2023/08/02 10:13:36;;;;;;;;;;;;;;;;;;5075492;28;19955;-70
2023/08/02 10:16:02;;;;;;;;;;;;;;;;;;5075354;28;19974;-70
2023/08/02 10:18:28;;;;;;;;;;;;;;;;;;5075149;28;19916;-70
2023/08/02 10:20:54;;;;;;;;;;;;;;;;;;5075583;28;19912;-69
2023/08/02 10:23:20;;;;;;;;;;;;;;;;;;5075390;28;19984;-68
2023/08/02 10:25:46;;;;;;;;;;;;;;;;;;5075189;28;19951;-69
2023/08/02 10:28:12;;;;;;;;;;;;;;;;;;5075273;28;19908;-69
2023/08/02 10:30:38;;;;;;;;;;;;;;;;;;5075303;28;19954;-70
2023/08/02 10:33:04;;;;;;;;;;;;;;;;;;5075036;28;19912;-70
2023/08/02 10:35:30;;;;;;;;;;;;;;;;;;5075162;28;19917;-70
2023/08/02 10:37:56;;;;;;;;;;;;;;;;;;5074404;28;19908;-70
2023/08/02 10:40:22;;;;;;;;;;;;;;;;;;5074595;28;19908;-70
2023/08/02 10:42:47;;;;;;;;;;;;;;;;;;5075045;28;19912;-69
2023/08/02 10:45:13;;;;;;;;;;;;;;;;;;5075276;28;19915;-70
2023/08/02 10:47:39;;;;;;;;;;;;;;;;;;5074624;28;19915;-70
2023/08/02 10:50:05;;;;;;;;;;;;;;;;;;5074975;28;19909;-70
2023/08/02 10:52:32;;;;;;;;;;;;;;;;;;5074842;28;20296;-70
2023/08/02 10:54:58;;;;;;;;;;;;;;;;;;5074289;28;20361;-70
2023/08/02 10:57:24;;;;;;;;;;;;;;;;;;5074730;28;19915;-70
2023/08/02 10:59:50;;;;;;;;;;;;;;;;;;5074766;28;19909;-70
2023/08/02 11:02:16;;;;;;;;;;;;;;;;;;5074268;28;19931;-70
2023/08/02 11:04:42;;;;;;;;;;;;;;;;;;5074842;28;20007;-70
2023/08/02 11:07:08;;;;;;;;;;;;;;;;;;5074973;28;20383;-69
2023/08/02 11:09:34;;;;;;;;;;;;;;;;;;5074130;28;20326;-69
2023/08/02 11:12:00;;;;;;;;;;;;;;;;;;5074406;28;20393;-69
2023/08/02 11:14:26;;;;;;;;;;;;;;;;;;5073770;28;19946;-69
2023/08/02 11:16:52;;;;;;;;;;;;;;;;;;5074449;28;19908;-69
2023/08/02 11:19:18;;;;;;;;;;;;;;;;;;5074409;28;19919;-69
2023/08/02 11:21:44;;;;;;;;;;;;;;;;;;5074348;28;20333;-69
2023/08/02 11:24:10;;;;;;;;;;;;;;;;;;5074765;28;20375;-69
2023/08/02 11:26:36;;;;;;;;;;;;;;;;;;5074220;28;20339;-69
2023/08/02 11:29:02;;;;;;;;;;;;;;;;;;5073906;28;20323;-69
2023/08/02 11:31:28;;;;;;;;;;;;;;;;;;5072857;28;20003;-69
2023/08/02 11:33:54;;;;;;;;;;;;;;;;;;5074150;28;20250;-69
2023/08/02 11:36:20;;;;;;;;;;;;;;;;;;5073986;28;20023;-69
2023/08/02 11:38:46;;;;;;;;;;;;;;;;;;5074370;28;19908;-69
2023/08/02 11:41:12;;;;;;;;;;;;;;;;;;5074035;28;19947;-69
2023/08/02 11:43:38;;;;;;;;;;;;;;;;;;5072331;28;20345;-69
2023/08/02 11:46:04;;;;;;;;;;;;;;;;;;5073958;28;19908;-69
2023/08/02 11:48:30;;;;;;;;;;;;;;;;;;5072584;28;19966;-69
2023/08/02 11:50:56;;;;;;;;;;;;;;;;;;5073246;28;19909;-69
2023/08/02 11:53:22;;;;;;;;;;;;;;;;;;5073840;28;19909;-69
2023/08/02 11:55:48;;;;;;;;;;;;;;;;;;5073772;28;19973;-70
2023/08/02 11:58:14;;;;;;;;;;;;;;;;;;5073452;28;19998;-70
2023/08/02 12:00:40;;;;;;;;;;;;;;;;;;5073863;28;20003;-70
2023/08/02 12:03:06;;;;;;;;;;;;;;;;;;5073752;28;19916;-70
2023/08/02 12:05:32;;;;;;;;;;;;;;;;;;5073358;28;20360;-69
2023/08/02 12:07:58;;;;;;;;;;;;;;;;;;5073653;28;20329;-70
2023/08/02 12:10:24;;;;;;;;;;;;;;;;;;5073710;28;20281;-69
2023/08/02 12:12:50;;;;;;;;;;;;;;;;;;5073281;28;19909;-70
2023/08/02 12:15:16;;;;;;;;;;;;;;;;;;5073399;28;20389;-70
2023/08/02 12:17:42;;;;;;;;;;;;;;;;;;5073196;28;19915;-71
2023/08/02 12:20:08;;;;;;;;;;;;;;;;;;5073696;28;19913;-69
2023/08/02 12:22:34;;;;;;;;;;;;;;;;;;5073775;28;19908;-69
2023/08/02 12:25:00;;;;;;;;;;;;;;;;;;5071915;28;19919;-69
2023/08/02 12:27:26;;;;;;;;;;;;;;;;;;5072257;28;19908;-69
2023/08/02 12:29:52;;;;;;;;;;;;;;;;;;5073540;28;19916;-69
2023/08/02 12:32:18;;;;;;;;;;;;;;;;;;5073105;28;20412;-69
2023/08/02 12:34:44;;;;;;;;;;;;;;;;;;5073419;28;20296;-69
2023/08/02 12:37:10;;;;;;;;;;;;;;;;;;5073372;28;20288;-69
2023/08/02 12:39:36;;;;;;;;;;;;;;;;;;5073026;28;20046;-70
2023/08/02 12:42:02;;;;;;;;;;;;;;;;;;5073341;28;19999;-69
2023/08/02 12:44:28;;;;;;;;;;;;;;;;;;5073396;28;19916;-69
2023/08/02 12:46:54;;;;;;;;;;;;;;;;;;5073128;28;19909;-70
2023/08/02 12:49:20;;;;;;;;;;;;;;;;;;5073288;28;19912;-70
2023/08/02 12:51:46;;;;;;;;;;;;;;;;;;5073274;28;20253;-69
2023/08/02 12:54:12;;;;;;;;;;;;;;;;;;5072869;28;19940;-70
2023/08/02 12:56:38;;;;;;;;;;;;;;;;;;5073174;28;20339;-70
2023/08/02 12:59:04;;;;;;;;;;;;;;;;;;5073206;28;19954;-69
2023/08/02 13:01:30;;;;;;;;;;;;;;;;;;5073449;28;19954;-69
2023/08/02 13:03:56;;;;;;;;;;;;;;;;;;5076991;28;19909;-69
2023/08/02 13:06:22;;;;;;;;;;;;;;;;;;5076871;28;19908;-69
2023/08/02 13:08:48;;;;;;;;;;;;;;;;;;5076471;28;19912;-69
2023/08/02 13:11:14;;;;;;;;;;;;;;;;;;5076782;28;19916;-69
2023/08/02 13:13:40;;;;;;;;;;;;;;;;;;5076684;28;19908;-70
2023/08/02 13:16:06;;;;;;;;;;;;;;;;;;5076072;28;19928;-69
2023/08/02 13:18:32;;;;;;;;;;;;;;;;;;5076603;28;20388;-69
2023/08/02 13:20:58;;;;;;;;;;;;;;;;;;5076279;28;19908;-70
2023/08/02 13:23:24;;;;;;;;;;;;;;;;;;5076603;28;19990;-69
2023/08/02 13:25:50;;;;;;;;;;;;;;;;;;5076583;28;19908;-70
2023/08/02 13:28:16;;;;;;;;;;;;;;;;;;5076177;28;20387;-69
2023/08/02 13:30:42;;;;;;;;;;;;;;;;;;5076469;28;19915;-69
2023/08/02 13:33:08;;;;;;;;;;;;;;;;;;5076452;28;19908;-70
2023/08/02 13:35:34;;;;;;;;;;;;;;;;;;5076005;28;19923;-70
2023/08/02 13:38:00;;;;;;;;;;;;;;;;;;5076463;28;19909;-70
2023/08/02 13:40:26;;;;;;;;;;;;;;;;;;5076606;28;20357;-70
2023/08/02 13:42:52;;;;;;;;;;;;;;;;;;5075936;28;19916;-71
2023/08/02 13:45:18;;;;;;;;;;;;;;;;;;5076250;28;19912;-69
2023/08/02 13:47:44;;;;;;;;;;;;;;;;;;5074924;28;19951;-70
2023/08/02 13:50:10;;;;;;;;;;;;;;;;;;5075699;28;19963;-70
2023/08/02 13:52:36;;;;;;;;;;;;;;;;;;5076465;28;20380;-70
2023/08/02 13:55:02;;;;;;;;;;;;;;;;;;5076050;28;19920;-69
2023/08/02 13:57:28;;;;;;;;;;;;;;;;;;5075806;28;19936;-71
2023/08/02 13:59:54;;;;;;;;;;;;;;;;;;5075980;28;20279;-70
2023/08/02 14:02:20;;;;;;;;;;;;;;;;;;5076136;28;19991;-70
2023/08/02 14:04:46;;;;;;;;;;;;;;;;;;5075495;28;20414;-71
2023/08/02 14:07:12;;;;;;;;;;;;;;;;;;5074569;28;20270;-70
2023/08/02 14:09:40;;;;;;;;;;;;;;;;;;5075838;28;19908;-70
2023/08/02 14:12:06;;;;;;;;;;;;;;;;;;5075215;28;19912;-70
2023/08/02 14:14:32;;;;;;;;;;;;;;;;;;5075484;28;19919;-70
2023/08/02 14:16:58;;;;;;;;;;;;;;;;;;5075776;28;19913;-71
2023/08/02 14:19:24;;;;;;;;;;;;;;;;;;5075188;28;19909;-70
2023/08/02 14:21:50;;;;;;;;;;;;;;;;;;5075533;28;20029;-70
2023/08/02 14:24:16;;;;;;;;;;;;;;;;;;5075052;28;19914;-70
2023/08/02 14:26:42;;;;;;;;;;;;;;;;;;5075443;28;20134;-68
2023/08/02 14:29:08;;;;;;;;;;;;;;;;;;5075398;28;19909;-69
2023/08/02 14:31:34;;;;;;;;;;;;;;;;;;5074866;28;19978;-68
2023/08/02 14:34:00;;;;;;;;;;;;;;;;;;5075305;28;19909;-69
2023/08/02 14:36:26;;;;;;;;;;;;;;;;;;5075464;28;20452;-69
2023/08/02 14:38:52;;;;;;;;;;;;;;;;;;5074780;28;19909;-69
2023/08/02 14:41:18;;;;;;;;;;;;;;;;;;5075047;28;19915;-69
2023/08/02 14:43:44;;;;;;;;;;;;;;;;;;5075049;28;19909;-70
2023/08/02 14:46:10;;;;;;;;;;;;;;;;;;5074580;28;19912;-70
2023/08/02 14:48:36;;;;;;;;;;;;;;;;;;5074987;28;19915;-70
2023/08/02 14:51:02;;;;;;;;;;;;;;;;;;5074806;28;19908;-70
2023/08/02 14:53:28;;;;;;;;;;;;;;;;;;5074321;28;19916;-70
2023/08/02 14:55:54;;;;;;;;;;;;;;;;;;5074885;28;19969;-71
2023/08/02 14:58:20;;;;;;;;;;;;;;;;;;5074660;28;19916;-70
2023/08/02 15:00:49;;;;;;;;;;;;;;;;;;5074255;28;19909;-71
2023/08/02 15:03:15;;;;;;;;;;;;;;;;;;5073354;28;20446;-70
2023/08/02 15:05:41;;;;;;;;;;;;;;;;;;5074718;28;19951;-71
2023/08/02 15:08:07;;;;;;;;;;;;;;;;;;5074222;28;19916;-70
2023/08/02 15:10:33;;;;;;;;;;;;;;;;;;5075038;28;19916;-70
2023/08/02 15:12:59;;;;;;;;;;;;;;;;;;5074509;28;20379;-70
2023/08/02 15:15:25;;;;;;;;;;;;;;;;;;5072511;28;19943;-70
2023/08/02 15:17:51;;;;;;;;;;;;;;;;;;5074417;28;19908;-69
2023/08/02 15:20:17;;;;;;;;;;;;;;;;;;5074363;28;19978;-69
2023/08/02 15:22:43;;;;;;;;;;;;;;;;;;5073881;28;19912;-70
2023/08/02 15:25:09;;;;;;;;;;;;;;;;;;5074293;28;20379;-70
2023/08/02 15:27:35;;;;;;;;;;;;;;;;;;5074052;28;19908;-69
2023/08/02 15:30:01;;;;;;;;;;;;;;;;;;5074099;28;19931;-69
2023/08/02 15:32:27;;;;;;;;;;;;;;;;;;5074065;28;19916;-69
2023/08/02 15:34:53;;;;;;;;;;;;;;;;;;5072351;28;19917;-69
2023/08/02 15:37:19;;;;;;;;;;;;;;;;;;5074384;28;20001;-70
2023/08/02 15:39:45;;;;;;;;;;;;;;;;;;5074372;28;19932;-69
2023/08/02 15:42:12;;;;;;;;;;;;;;;;;;5073643;28;19915;-70
2023/08/02 15:44:38;;;;;;;;;;;;;;;;;;5073995;28;19966;-69
2023/08/02 15:47:04;;;;;;;;;;;;;;;;;;5073925;28;19909;-70
2023/08/02 15:49:30;;;;;;;;;;;;;;;;;;5073516;28;19908;-69
2023/08/02 15:51:56;;;;;;;;;;;;;;;;;;5073934;28;20003;-70
2023/08/02 15:54:22;;;;;;;;;;;;;;;;;;5073865;28;19909;-69
2023/08/02 15:56:48;;;;;;;;;;;;;;;;;;5073285;28;19986;-69
2023/08/02 15:59:15;;;;;;;;;;;;;;;;;;5073835;28;19909;-69
2023/08/02 16:01:41;;;;;;;;;;;;;;;;;;5073740;28;20361;-69
2023/08/02 16:04:07;;;;;;;;;;;;;;;;;;5072132;28;20004;-69
2023/08/02 16:06:33;;;;;;;;;;;;;;;;;;5073689;28;19908;-69
2023/08/02 16:09:01;;;;;;;;;;;;;;;;;;5073685;28;20380;-69
2023/08/02 16:11:27;;;;;;;;;;;;;;;;;;5073350;28;19944;-69
2023/08/02 16:13:54;;;;;;;;;;;;;;;;;;5073667;28;19975;-69
2023/08/02 16:16:20;;;;;;;;;;;;;;;;;;5073451;28;19924;-69
2023/08/02 16:18:46;;;;;;;;;;;;;;;;;;5073234;28;19909;-69
2023/08/02 16:21:12;;;;;;;;;;;;;;;;;;5073517;28;19909;-69
2023/08/02 16:23:38;;;;;;;;;;;;;;;;;;5073516;28;19909;-69
2023/08/02 16:26:04;;;;;;;;;;;;;;;;;;5073240;28;19908;-69
2023/08/02 16:28:30;;;;;;;;;;;;;;;;;;5073465;28;19915;-69
2023/08/02 16:30:56;;;;;;;;;;;;;;;;;;5073082;28;19915;-69
2023/08/02 16:33:22;;;;;;;;;;;;;;;;;;5073341;28;19909;-69
2023/08/02 16:35:48;;;;;;;;;;;;;;;;;;5071995;28;20351;-69
2023/08/02 16:38:14;;;;;;;;;;;;;;;;;;5076578;28;19908;-69
2023/08/02 16:40:40;;;;;;;;;;;;;;;;;;5077453;28;19951;-69
2023/08/02 16:43:06;;;;;;;;;;;;;;;;;;5077389;28;19939;-69
2023/08/02 16:45:32;;;;;;;;;;;;;;;;;;5076943;28;19909;-70
2023/08/02 16:47:58;;;;;;;;;;;;;;;;;;5077262;28;19909;-69
2023/08/02 16:50:26;;;;;;;;;;;;;;;;;;5077228;28;19963;-69
2023/08/02 16:52:52;;;;;;;;;;;;;;;;;;5076887;28;19909;-68
2023/08/02 16:55:18;;;;;;;;;;;;;;;;;;5077015;28;20022;-68
2023/08/02 16:57:44;;;;;;;;;;;;;;;;;;5077133;28;19912;-69
2023/08/02 17:00:10;;;;;;;;;;;;;;;;;;5076580;28;20445;-69
2023/08/02 17:02:36;;;;;;;;;;;;;;;;;;5077149;28;20388;-70
2023/08/02 17:05:02;;;;;;;;;;;;;;;;;;5076876;28;19908;-69
2023/08/02 17:07:28;;;;;;;;;;;;;;;;;;5076467;28;19909;-69
2023/08/02 17:09:54;;;;;;;;;;;;;;;;;;5077173;28;20312;-69
2023/08/02 17:12:20;;;;;;;;;;;;;;;;;;5075447;28;19958;-69
2023/08/02 17:14:46;;;;;;;;;;;;;;;;;;5074781;28;19919;-69
2023/08/02 17:17:12;;;;;;;;;;;;;;;;;;5076647;28;19912;-69
2023/08/02 17:19:38;;;;;;;;;;;;;;;;;;5076640;28;19995;-69
2023/08/02 17:22:04;;;;;;;;;;;;;;;;;;5076170;28;19951;-69
2023/08/02 17:24:30;;;;;;;;;;;;;;;;;;5076505;28;19908;-68
2023/08/02 17:26:56;;;;;;;;;;;;;;;;;;5076513;28;19962;-68
2023/08/02 17:29:22;;;;;;;;;;;;;;;;;;5074874;28;19916;-69
2023/08/02 17:31:48;;;;;;;;;;;;;;;;;;5075147;28;19916;-69
2023/08/02 17:34:13;;;;;;;;;;;;;;;;;;5074792;28;19915;-69
2023/08/02 17:36:40;;;;;;;;;;;;;;;;;;5076317;28;20360;-69
2023/08/02 17:39:06;;;;;;;;;;;;;;;;;;5076393;28;19909;-69
2023/08/02 17:41:32;;;;;;;;;;;;;;;;;;5075724;28;20307;-69
2023/08/02 17:43:58;;;;;;;;;;;;;;;;;;5076186;28;19908;-69
2023/08/02 17:46:24;;;;;;;;;;;;;;;;;;5074907;28;19908;-68
2023/08/02 17:48:50;;;;;;;;;;;;;;;;;;5075248;28;19908;-69
2023/08/02 17:51:15;;;;;;;;;;;;;;;;;;5076073;28;19931;-69
2023/08/02 17:53:41;;;;;;;;;;;;;;;;;;5076081;28;19948;-69
2023/08/02 17:56:07;;;;;;;;;;;;;;;;;;5075699;28;19920;-69
2023/08/02 17:58:34;;;;;;;;;;;;;;;;;;5076037;28;19909;-69
2023/08/02 18:01:00;;;;;;;;;;;;;;;;;;5075921;28;19909;-69
2023/08/02 18:03:26;;;;;;;;;;;;;;;;;;5075543;28;19926;-70
2023/08/02 18:05:52;;;;;;;;;;;;;;;;;;5075794;28;19940;-69
2023/08/02 18:08:18;;;;;;;;;;;;;;;;;;5075842;28;19915;-70
2023/08/02 18:10:44;;;;;;;;;;;;;;;;;;5075412;28;19909;-69
2023/08/02 18:13:10;;;;;;;;;;;;;;;;;;5075736;28;19914;-69